sensor_id;sensor_type;location;lat;lon;timestamp;P1;durP1;ratioP1;P2;durP2;ratioP2
3006;SDS011;1513;47.650;10.720;2022-09-25T00:00:46;9.03;;;5.93;;
3006;SDS011;1513;47.650;10.720;2022-09-25T00:03:52;10.63;;;7.30;;
3006;SDS011;1513;47.650;10.720;2022-09-25T00:06:55;7.77;;;5.90;;
3006;SDS011;1513;47.650;10.720;2022-09-25T00:09:58;12.60;;;7.03;;
3006;SDS011;1513;47.650;10.720;2022-09-25T00:13:02;9.43;;;6.37;;
3006;SDS011;1513;47.650;10.720;2022-09-25T00:16:07;8.77;;;5.90;;
3006;SDS011;1513;47.650;10.720;2022-09-25T00:19:18;10.67;;;6.70;;
3006;SDS011;1513;47.650;10.720;2022-09-25T00:22:42;9.33;;;6.07;;
3006;SDS011;1513;47.650;10.720;2022-09-25T00:25:51;9.97;;;6.60;;
3006;SDS011;1513;47.650;10.720;2022-09-25T00:28:56;9.17;;;6.83;;
3006;SDS011;1513;47.650;10.720;2022-09-25T00:32:05;12.10;;;8.07;;
3006;SDS011;1513;47.650;10.720;2022-09-25T00:35:11;11.10;;;6.97;;
3006;SDS011;1513;47.650;10.720;2022-09-25T00:38:15;11.67;;;8.40;;
3006;SDS011;1513;47.650;10.720;2022-09-25T00:41:20;18.40;;;9.80;;
3006;SDS011;1513;47.650;10.720;2022-09-25T00:47:58;25.10;;;11.77;;
3006;SDS011;1513;47.650;10.720;2022-09-25T00:51:02;19.30;;;10.03;;
3006;SDS011;1513;47.650;10.720;2022-09-25T00:54:10;22.47;;;12.03;;
3006;SDS011;1513;47.650;10.720;2022-09-25T00:57:24;23.37;;;12.97;;
3006;SDS011;1513;47.650;10.720;2022-09-25T01:00:31;20.30;;;11.53;;
3006;SDS011;1513;47.650;10.720;2022-09-25T01:03:35;19.67;;;11.53;;
3006;SDS011;1513;47.650;10.720;2022-09-25T01:06:39;18.70;;;11.03;;
3006;SDS011;1513;47.650;10.720;2022-09-25T01:09:44;18.03;;;10.40;;
3006;SDS011;1513;47.650;10.720;2022-09-25T01:12:48;18.93;;;10.30;;
3006;SDS011;1513;47.650;10.720;2022-09-25T01:23:05;11.37;;;7.77;;
3006;SDS011;1513;47.650;10.720;2022-09-25T01:29:38;17.30;;;9.70;;
3006;SDS011;1513;47.650;10.720;2022-09-25T01:33:06;16.60;;;10.23;;
3006;SDS011;1513;47.650;10.720;2022-09-25T01:36:24;26.20;;;10.23;;
3006;SDS011;1513;47.650;10.720;2022-09-25T01:39:34;10.97;;;7.70;;
3006;SDS011;1513;47.650;10.720;2022-09-25T01:42:54;9.50;;;6.90;;
3006;SDS011;1513;47.650;10.720;2022-09-25T01:46:12;14.03;;;7.63;;
3006;SDS011;1513;47.650;10.720;2022-09-25T01:49:25;10.63;;;7.33;;
3006;SDS011;1513;47.650;10.720;2022-09-25T01:52:43;11.17;;;7.30;;
3006;SDS011;1513;47.650;10.720;2022-09-25T01:55:53;9.07;;;6.30;;
3006;SDS011;1513;47.650;10.720;2022-09-25T01:59:11;8.33;;;6.40;;
3006;SDS011;1513;47.650;10.720;2022-09-25T02:02:21;10.43;;;7.50;;
3006;SDS011;1513;47.650;10.720;2022-09-25T02:05:34;11.30;;;8.40;;
3006;SDS011;1513;47.650;10.720;2022-09-25T02:09:08;11.97;;;8.60;;
3006;SDS011;1513;47.650;10.720;2022-09-25T02:12:20;12.10;;;8.20;;
3006;SDS011;1513;47.650;10.720;2022-09-25T02:15:28;10.70;;;7.83;;
3006;SDS011;1513;47.650;10.720;2022-09-25T02:18:34;12.17;;;7.93;;
3006;SDS011;1513;47.650;10.720;2022-09-25T02:22:10;12.10;;;8.10;;
3006;SDS011;1513;47.650;10.720;2022-09-25T02:25:26;13.23;;;8.60;;
3006;SDS011;1513;47.650;10.720;2022-09-25T02:28:52;10.07;;;7.73;;
3006;SDS011;1513;47.650;10.720;2022-09-25T02:31:57;11.07;;;7.60;;
3006;SDS011;1513;47.650;10.720;2022-09-25T02:35:05;15.43;;;8.93;;
3006;SDS011;1513;47.650;10.720;2022-09-25T02:38:09;18.33;;;8.80;;
3006;SDS011;1513;47.650;10.720;2022-09-25T02:41:18;18.37;;;8.13;;
3006;SDS011;1513;47.650;10.720;2022-09-25T02:51:07;8.40;;;6.43;;
3006;SDS011;1513;47.650;10.720;2022-09-25T02:54:15;9.53;;;6.50;;
3006;SDS011;1513;47.650;10.720;2022-09-25T03:00:49;9.90;;;6.37;;
3006;SDS011;1513;47.650;10.720;2022-09-25T03:03:55;10.23;;;6.27;;
3006;SDS011;1513;47.650;10.720;2022-09-25T03:07:00;9.00;;;6.00;;
3006;SDS011;1513;47.650;10.720;2022-09-25T03:10:04;9.93;;;6.63;;
3006;SDS011;1513;47.650;10.720;2022-09-25T03:13:11;11.97;;;6.70;;
3006;SDS011;1513;47.650;10.720;2022-09-25T03:19:48;9.13;;;6.17;;
3006;SDS011;1513;47.650;10.720;2022-09-25T03:22:53;8.93;;;7.13;;
3006;SDS011;1513;47.650;10.720;2022-09-25T03:25:57;8.87;;;6.43;;
3006;SDS011;1513;47.650;10.720;2022-09-25T03:29:01;8.43;;;6.17;;
3006;SDS011;1513;47.650;10.720;2022-09-25T03:32:05;10.00;;;6.13;;
3006;SDS011;1513;47.650;10.720;2022-09-25T03:35:09;8.60;;;6.30;;
3006;SDS011;1513;47.650;10.720;2022-09-25T03:38:12;7.60;;;6.20;;
3006;SDS011;1513;47.650;10.720;2022-09-25T03:41:17;7.93;;;6.37;;
3006;SDS011;1513;47.650;10.720;2022-09-25T03:44:22;9.67;;;7.00;;
3006;SDS011;1513;47.650;10.720;2022-09-25T03:47:25;10.90;;;7.93;;
3006;SDS011;1513;47.650;10.720;2022-09-25T03:50:29;7.83;;;6.57;;
3006;SDS011;1513;47.650;10.720;2022-09-25T03:53:32;8.30;;;6.60;;
3006;SDS011;1513;47.650;10.720;2022-09-25T03:56:37;10.67;;;7.47;;
3006;SDS011;1513;47.650;10.720;2022-09-25T03:59:41;12.13;;;9.30;;
3006;SDS011;1513;47.650;10.720;2022-09-25T04:02:44;11.47;;;8.40;;
3006;SDS011;1513;47.650;10.720;2022-09-25T04:05:48;13.70;;;8.30;;
3006;SDS011;1513;47.650;10.720;2022-09-25T04:08:52;13.23;;;8.50;;
3006;SDS011;1513;47.650;10.720;2022-09-25T04:11:56;12.50;;;8.70;;
3006;SDS011;1513;47.650;10.720;2022-09-25T04:14:59;16.80;;;7.90;;
3006;SDS011;1513;47.650;10.720;2022-09-25T04:18:03;12.00;;;7.90;;
3006;SDS011;1513;47.650;10.720;2022-09-25T04:21:08;12.63;;;7.70;;
3006;SDS011;1513;47.650;10.720;2022-09-25T04:24:13;13.70;;;8.80;;
3006;SDS011;1513;47.650;10.720;2022-09-25T04:27:35;13.67;;;8.13;;
3006;SDS011;1513;47.650;10.720;2022-09-25T04:30:39;13.20;;;8.30;;
3006;SDS011;1513;47.650;10.720;2022-09-25T04:33:42;10.90;;;7.47;;
3006;SDS011;1513;47.650;10.720;2022-09-25T04:36:49;12.20;;;8.00;;
3006;SDS011;1513;47.650;10.720;2022-09-25T04:39:53;11.73;;;7.50;;
3006;SDS011;1513;47.650;10.720;2022-09-25T04:42:58;14.87;;;8.70;;
3006;SDS011;1513;47.650;10.720;2022-09-25T04:46:06;10.53;;;7.93;;
3006;SDS011;1513;47.650;10.720;2022-09-25T04:49:11;20.50;;;11.80;;
3006;SDS011;1513;47.650;10.720;2022-09-25T04:52:15;28.40;;;16.93;;
3006;SDS011;1513;47.650;10.720;2022-09-25T04:55:21;48.47;;;25.00;;
3006;SDS011;1513;47.650;10.720;2022-09-25T04:58:26;46.43;;;24.40;;
3006;SDS011;1513;47.650;10.720;2022-09-25T05:01:30;43.00;;;23.63;;
3006;SDS011;1513;47.650;10.720;2022-09-25T05:04:33;46.90;;;23.77;;
3006;SDS011;1513;47.650;10.720;2022-09-25T05:07:36;36.30;;;20.53;;
3006;SDS011;1513;47.650;10.720;2022-09-25T05:10:41;39.53;;;20.00;;
3006;SDS011;1513;47.650;10.720;2022-09-25T05:13:49;38.33;;;21.67;;
3006;SDS011;1513;47.650;10.720;2022-09-25T05:16:53;62.67;;;28.83;;
3006;SDS011;1513;47.650;10.720;2022-09-25T05:19:56;37.97;;;21.83;;
3006;SDS011;1513;47.650;10.720;2022-09-25T05:23:00;33.87;;;19.63;;
3006;SDS011;1513;47.650;10.720;2022-09-25T05:26:05;29.17;;;17.30;;
3006;SDS011;1513;47.650;10.720;2022-09-25T05:29:08;24.70;;;14.87;;
3006;SDS011;1513;47.650;10.720;2022-09-25T05:32:12;22.53;;;12.80;;
3006;SDS011;1513;47.650;10.720;2022-09-25T05:35:17;22.07;;;11.93;;
3006;SDS011;1513;47.650;10.720;2022-09-25T05:38:21;21.00;;;12.10;;
3006;SDS011;1513;47.650;10.720;2022-09-25T05:41:25;26.77;;;11.40;;
3006;SDS011;1513;47.650;10.720;2022-09-25T05:44:29;17.43;;;11.50;;
3006;SDS011;1513;47.650;10.720;2022-09-25T05:47:32;21.57;;;14.10;;
3006;SDS011;1513;47.650;10.720;2022-09-25T05:50:36;24.77;;;14.27;;
3006;SDS011;1513;47.650;10.720;2022-09-25T05:53:40;19.67;;;12.67;;
3006;SDS011;1513;47.650;10.720;2022-09-25T05:56:43;23.77;;;14.90;;
3006;SDS011;1513;47.650;10.720;2022-09-25T05:59:47;28.27;;;17.00;;
3006;SDS011;1513;47.650;10.720;2022-09-25T06:02:51;27.83;;;17.00;;
3006;SDS011;1513;47.650;10.720;2022-09-25T06:05:55;27.90;;;16.20;;
3006;SDS011;1513;47.650;10.720;2022-09-25T06:09:02;27.73;;;17.30;;
3006;SDS011;1513;47.650;10.720;2022-09-25T06:12:05;35.87;;;20.60;;
3006;SDS011;1513;47.650;10.720;2022-09-25T06:15:09;50.43;;;28.30;;
3006;SDS011;1513;47.650;10.720;2022-09-25T06:18:13;40.23;;;24.60;;
3006;SDS011;1513;47.650;10.720;2022-09-25T06:21:17;39.33;;;23.80;;
3006;SDS011;1513;47.650;10.720;2022-09-25T06:24:20;48.20;;;26.30;;
3006;SDS011;1513;47.650;10.720;2022-09-25T06:27:24;50.73;;;28.73;;
3006;SDS011;1513;47.650;10.720;2022-09-25T06:30:29;28.63;;;17.50;;
3006;SDS011;1513;47.650;10.720;2022-09-25T06:33:38;16.13;;;10.83;;
3006;SDS011;1513;47.650;10.720;2022-09-25T06:36:41;11.03;;;8.10;;
3006;SDS011;1513;47.650;10.720;2022-09-25T06:39:45;11.30;;;7.57;;
3006;SDS011;1513;47.650;10.720;2022-09-25T06:42:53;55.67;;;27.70;;
3006;SDS011;1513;47.650;10.720;2022-09-25T06:46:00;50.00;;;27.20;;
3006;SDS011;1513;47.650;10.720;2022-09-25T06:49:04;39.37;;;25.27;;
3006;SDS011;1513;47.650;10.720;2022-09-25T06:52:08;39.03;;;22.23;;
3006;SDS011;1513;47.650;10.720;2022-09-25T06:55:12;25.40;;;17.00;;
3006;SDS011;1513;47.650;10.720;2022-09-25T06:58:17;25.23;;;16.67;;
3006;SDS011;1513;47.650;10.720;2022-09-25T07:01:22;39.10;;;24.37;;
3006;SDS011;1513;47.650;10.720;2022-09-25T07:04:25;28.37;;;18.90;;
3006;SDS011;1513;47.650;10.720;2022-09-25T07:07:28;21.33;;;15.53;;
3006;SDS011;1513;47.650;10.720;2022-09-25T07:10:32;25.03;;;15.70;;
3006;SDS011;1513;47.650;10.720;2022-09-25T07:13:36;31.37;;;19.00;;
3006;SDS011;1513;47.650;10.720;2022-09-25T07:16:40;29.90;;;18.70;;
3006;SDS011;1513;47.650;10.720;2022-09-25T07:19:44;31.70;;;19.40;;
3006;SDS011;1513;47.650;10.720;2022-09-25T07:22:48;53.77;;;34.80;;
3006;SDS011;1513;47.650;10.720;2022-09-25T07:25:51;58.60;;;35.83;;
3006;SDS011;1513;47.650;10.720;2022-09-25T07:28:59;55.50;;;34.03;;
3006;SDS011;1513;47.650;10.720;2022-09-25T07:32:04;39.00;;;23.50;;
3006;SDS011;1513;47.650;10.720;2022-09-25T07:35:08;24.00;;;15.53;;
3006;SDS011;1513;47.650;10.720;2022-09-25T07:38:12;24.60;;;15.23;;
3006;SDS011;1513;47.650;10.720;2022-09-25T07:41:15;13.60;;;9.83;;
3006;SDS011;1513;47.650;10.720;2022-09-25T07:44:20;16.50;;;11.57;;
3006;SDS011;1513;47.650;10.720;2022-09-25T07:47:24;16.60;;;11.50;;
3006;SDS011;1513;47.650;10.720;2022-09-25T07:50:27;11.97;;;8.50;;
3006;SDS011;1513;47.650;10.720;2022-09-25T07:53:31;13.03;;;9.07;;
3006;SDS011;1513;47.650;10.720;2022-09-25T07:56:35;9.20;;;6.80;;
3006;SDS011;1513;47.650;10.720;2022-09-25T07:59:39;12.70;;;7.90;;
3006;SDS011;1513;47.650;10.720;2022-09-25T08:02:43;11.70;;;7.70;;
3006;SDS011;1513;47.650;10.720;2022-09-25T08:05:46;10.93;;;8.00;;
3006;SDS011;1513;47.650;10.720;2022-09-25T08:08:50;12.90;;;7.97;;
3006;SDS011;1513;47.650;10.720;2022-09-25T08:11:53;6.00;;;5.30;;
3006;SDS011;1513;47.650;10.720;2022-09-25T08:14:57;5.30;;;4.80;;
3006;SDS011;1513;47.650;10.720;2022-09-25T08:18:00;6.30;;;5.70;;
3006;SDS011;1513;47.650;10.720;2022-09-25T08:21:03;5.93;;;5.00;;
3006;SDS011;1513;47.650;10.720;2022-09-25T08:24:07;9.90;;;6.33;;
3006;SDS011;1513;47.650;10.720;2022-09-25T08:27:11;8.57;;;4.60;;
3006;SDS011;1513;47.650;10.720;2022-09-25T08:30:14;5.43;;;4.80;;
3006;SDS011;1513;47.650;10.720;2022-09-25T08:33:19;5.50;;;4.77;;
3006;SDS011;1513;47.650;10.720;2022-09-25T08:36:22;4.67;;;4.17;;
3006;SDS011;1513;47.650;10.720;2022-09-25T08:39:26;5.33;;;4.57;;
3006;SDS011;1513;47.650;10.720;2022-09-25T08:42:33;5.07;;;4.60;;
3006;SDS011;1513;47.650;10.720;2022-09-25T08:45:39;4.80;;;4.00;;
3006;SDS011;1513;47.650;10.720;2022-09-25T08:49:06;4.50;;;4.10;;
3006;SDS011;1513;47.650;10.720;2022-09-25T08:52:15;4.00;;;3.70;;
3006;SDS011;1513;47.650;10.720;2022-09-25T08:55:35;4.20;;;3.83;;
3006;SDS011;1513;47.650;10.720;2022-09-25T08:59:04;4.30;;;4.00;;
3006;SDS011;1513;47.650;10.720;2022-09-25T09:02:40;10.37;;;7.40;;
3006;SDS011;1513;47.650;10.720;2022-09-25T09:06:03;14.67;;;8.77;;
3006;SDS011;1513;47.650;10.720;2022-09-25T09:09:14;6.13;;;4.90;;
3006;SDS011;1513;47.650;10.720;2022-09-25T09:18:56;4.43;;;4.03;;
3006;SDS011;1513;47.650;10.720;2022-09-25T09:22:10;4.60;;;4.20;;
3006;SDS011;1513;47.650;10.720;2022-09-25T09:25:24;7.80;;;4.27;;
3006;SDS011;1513;47.650;10.720;2022-09-25T09:31:57;4.50;;;4.10;;
3006;SDS011;1513;47.650;10.720;2022-09-25T09:42:21;6.20;;;4.43;;
3006;SDS011;1513;47.650;10.720;2022-09-25T09:45:48;5.20;;;4.80;;
3006;SDS011;1513;47.650;10.720;2022-09-25T09:52:29;5.30;;;4.20;;
3006;SDS011;1513;47.650;10.720;2022-09-25T09:55:43;4.73;;;3.93;;
3006;SDS011;1513;47.650;10.720;2022-09-25T10:02:10;5.07;;;3.97;;
3006;SDS011;1513;47.650;10.720;2022-09-25T10:05:47;5.47;;;4.87;;
3006;SDS011;1513;47.650;10.720;2022-09-25T10:08:51;29.00;;;15.87;;
3006;SDS011;1513;47.650;10.720;2022-09-25T10:11:59;5.33;;;4.40;;
3006;SDS011;1513;47.650;10.720;2022-09-25T10:15:13;5.40;;;4.70;;
3006;SDS011;1513;47.650;10.720;2022-09-25T10:18:21;5.40;;;3.97;;
3006;SDS011;1513;47.650;10.720;2022-09-25T10:21:28;5.73;;;4.10;;
3006;SDS011;1513;47.650;10.720;2022-09-25T10:24:56;5.00;;;4.50;;
3006;SDS011;1513;47.650;10.720;2022-09-25T10:28:20;4.77;;;4.37;;
3006;SDS011;1513;47.650;10.720;2022-09-25T10:31:32;5.33;;;4.67;;
3006;SDS011;1513;47.650;10.720;2022-09-25T10:34:39;4.63;;;4.20;;
3006;SDS011;1513;47.650;10.720;2022-09-25T10:37:43;7.50;;;5.70;;
3006;SDS011;1513;47.650;10.720;2022-09-25T10:44:28;13.80;;;9.57;;
3006;SDS011;1513;47.650;10.720;2022-09-25T10:47:35;24.63;;;15.33;;
3006;SDS011;1513;47.650;10.720;2022-09-25T10:51:05;8.90;;;4.43;;
3006;SDS011;1513;47.650;10.720;2022-09-25T10:54:15;4.17;;;3.77;;
3006;SDS011;1513;47.650;10.720;2022-09-25T10:57:29;7.33;;;5.00;;
3006;SDS011;1513;47.650;10.720;2022-09-25T11:00:46;5.23;;;3.80;;
3006;SDS011;1513;47.650;10.720;2022-09-25T11:03:56;3.80;;;3.50;;
3006;SDS011;1513;47.650;10.720;2022-09-25T11:07:00;3.50;;;3.30;;
3006;SDS011;1513;47.650;10.720;2022-09-25T11:10:16;4.33;;;3.40;;
3006;SDS011;1513;47.650;10.720;2022-09-25T11:13:22;7.20;;;5.50;;
3006;SDS011;1513;47.650;10.720;2022-09-25T11:20:09;5.30;;;3.73;;
3006;SDS011;1513;47.650;10.720;2022-09-25T11:23:32;9.00;;;5.80;;
3006;SDS011;1513;47.650;10.720;2022-09-25T11:30:27;13.27;;;8.20;;
3006;SDS011;1513;47.650;10.720;2022-09-25T11:33:31;9.23;;;8.13;;
3006;SDS011;1513;47.650;10.720;2022-09-25T11:37:08;7.07;;;6.27;;
3006;SDS011;1513;47.650;10.720;2022-09-25T11:44:04;4.83;;;4.07;;
3006;SDS011;1513;47.650;10.720;2022-09-25T11:47:27;12.57;;;8.50;;
3006;SDS011;1513;47.650;10.720;2022-09-25T11:50:43;5.23;;;4.50;;
3006;SDS011;1513;47.650;10.720;2022-09-25T12:00:44;9.50;;;7.60;;
3006;SDS011;1513;47.650;10.720;2022-09-25T12:10:48;4.90;;;3.87;;
3006;SDS011;1513;47.650;10.720;2022-09-25T12:28:17;3.77;;;3.40;;
3006;SDS011;1513;47.650;10.720;2022-09-25T12:31:36;9.50;;;5.73;;
3006;SDS011;1513;47.650;10.720;2022-09-25T12:42:02;4.33;;;3.60;;
3006;SDS011;1513;47.650;10.720;2022-09-25T12:45:17;7.03;;;4.37;;
3006;SDS011;1513;47.650;10.720;2022-09-25T12:51:46;7.20;;;5.47;;
3006;SDS011;1513;47.650;10.720;2022-09-25T12:58:38;6.40;;;4.97;;
3006;SDS011;1513;47.650;10.720;2022-09-25T13:05:48;3.73;;;3.43;;
3006;SDS011;1513;47.650;10.720;2022-09-25T13:12:35;4.37;;;3.23;;
3006;SDS011;1513;47.650;10.720;2022-09-25T13:15:39;6.10;;;3.10;;
3006;SDS011;1513;47.650;10.720;2022-09-25T13:18:48;6.30;;;3.17;;
3006;SDS011;1513;47.650;10.720;2022-09-25T13:22:31;4.13;;;2.70;;
3006;SDS011;1513;47.650;10.720;2022-09-25T13:25:44;6.30;;;2.87;;
3006;SDS011;1513;47.650;10.720;2022-09-25T13:29:02;3.00;;;2.73;;
3006;SDS011;1513;47.650;10.720;2022-09-25T13:32:26;5.70;;;3.43;;
3006;SDS011;1513;47.650;10.720;2022-09-25T13:35:36;6.63;;;3.40;;
3006;SDS011;1513;47.650;10.720;2022-09-25T13:38:40;3.50;;;2.30;;
3006;SDS011;1513;47.650;10.720;2022-09-25T13:51:33;2.47;;;2.27;;
3006;SDS011;1513;47.650;10.720;2022-09-25T13:54:37;4.27;;;2.70;;
3006;SDS011;1513;47.650;10.720;2022-09-25T14:00:57;6.60;;;4.37;;
3006;SDS011;1513;47.650;10.720;2022-09-25T14:07:22;6.10;;;5.17;;
3006;SDS011;1513;47.650;10.720;2022-09-25T14:10:27;6.97;;;4.93;;
3006;SDS011;1513;47.650;10.720;2022-09-25T14:13:31;6.57;;;5.90;;
3006;SDS011;1513;47.650;10.720;2022-09-25T14:16:39;7.27;;;6.37;;
3006;SDS011;1513;47.650;10.720;2022-09-25T14:19:48;4.83;;;4.33;;
3006;SDS011;1513;47.650;10.720;2022-09-25T14:22:54;7.50;;;6.17;;
3006;SDS011;1513;47.650;10.720;2022-09-25T14:26:04;5.37;;;4.73;;
3006;SDS011;1513;47.650;10.720;2022-09-25T14:29:18;5.00;;;3.73;;
3006;SDS011;1513;47.650;10.720;2022-09-25T14:35:58;3.90;;;2.90;;
3006;SDS011;1513;47.650;10.720;2022-09-25T14:39:53;7.50;;;5.43;;
3006;SDS011;1513;47.650;10.720;2022-09-25T14:43:01;7.83;;;5.20;;
3006;SDS011;1513;47.650;10.720;2022-09-25T14:46:11;10.60;;;5.97;;
3006;SDS011;1513;47.650;10.720;2022-09-25T14:49:27;13.67;;;8.17;;
3006;SDS011;1513;47.650;10.720;2022-09-25T14:52:33;14.43;;;7.93;;
3006;SDS011;1513;47.650;10.720;2022-09-25T14:55:38;21.33;;;10.87;;
3006;SDS011;1513;47.650;10.720;2022-09-25T14:58:47;18.03;;;10.40;;
3006;SDS011;1513;47.650;10.720;2022-09-25T15:01:59;25.00;;;14.73;;
3006;SDS011;1513;47.650;10.720;2022-09-25T15:11:42;14.70;;;11.63;;
3006;SDS011;1513;47.650;10.720;2022-09-25T15:18:19;10.47;;;8.23;;
3006;SDS011;1513;47.650;10.720;2022-09-25T15:21:24;8.73;;;7.10;;
3006;SDS011;1513;47.650;10.720;2022-09-25T15:24:30;12.13;;;6.43;;
3006;SDS011;1513;47.650;10.720;2022-09-25T15:27:38;15.93;;;7.93;;
3006;SDS011;1513;47.650;10.720;2022-09-25T15:30:44;11.37;;;8.10;;
3006;SDS011;1513;47.650;10.720;2022-09-25T15:34:02;9.10;;;6.60;;
3006;SDS011;1513;47.650;10.720;2022-09-25T15:37:14;11.97;;;8.60;;
3006;SDS011;1513;47.650;10.720;2022-09-25T15:40:37;10.80;;;8.90;;
3006;SDS011;1513;47.650;10.720;2022-09-25T15:43:41;8.47;;;6.63;;
3006;SDS011;1513;47.650;10.720;2022-09-25T15:46:52;6.93;;;5.30;;
3006;SDS011;1513;47.650;10.720;2022-09-25T15:50:01;13.60;;;8.83;;
3006;SDS011;1513;47.650;10.720;2022-09-25T15:53:05;4.40;;;3.87;;
3006;SDS011;1513;47.650;10.720;2022-09-25T15:56:26;5.30;;;4.80;;
3006;SDS011;1513;47.650;10.720;2022-09-25T15:59:35;5.23;;;4.73;;
3006;SDS011;1513;47.650;10.720;2022-09-25T16:06:37;3.43;;;2.97;;
3006;SDS011;1513;47.650;10.720;2022-09-25T16:09:48;8.73;;;6.20;;
3006;SDS011;1513;47.650;10.720;2022-09-25T16:13:14;13.57;;;10.10;;
3006;SDS011;1513;47.650;10.720;2022-09-25T16:16:25;17.53;;;11.87;;
3006;SDS011;1513;47.650;10.720;2022-09-25T16:19:33;14.20;;;9.73;;
3006;SDS011;1513;47.650;10.720;2022-09-25T16:22:37;319.80;;;90.27;;
3006;SDS011;1513;47.650;10.720;2022-09-25T16:25:43;31.30;;;11.70;;
3006;SDS011;1513;47.650;10.720;2022-09-25T16:32:03;4.07;;;3.70;;
3006;SDS011;1513;47.650;10.720;2022-09-25T16:38:38;3.80;;;3.30;;
3006;SDS011;1513;47.650;10.720;2022-09-25T16:41:44;3.27;;;2.87;;
3006;SDS011;1513;47.650;10.720;2022-09-25T16:45:00;4.60;;;3.60;;
3006;SDS011;1513;47.650;10.720;2022-09-25T16:51:42;6.00;;;4.20;;
3006;SDS011;1513;47.650;10.720;2022-09-25T16:54:50;7.43;;;4.70;;
3006;SDS011;1513;47.650;10.720;2022-09-25T16:57:56;6.70;;;4.70;;
3006;SDS011;1513;47.650;10.720;2022-09-25T17:01:01;7.20;;;4.77;;
3006;SDS011;1513;47.650;10.720;2022-09-25T17:04:07;8.13;;;5.07;;
3006;SDS011;1513;47.650;10.720;2022-09-25T17:07:10;8.00;;;3.77;;
3006;SDS011;1513;47.650;10.720;2022-09-25T17:10:15;11.80;;;6.83;;
3006;SDS011;1513;47.650;10.720;2022-09-25T17:13:24;25.03;;;11.27;;
3006;SDS011;1513;47.650;10.720;2022-09-25T17:16:29;32.57;;;13.77;;
3006;SDS011;1513;47.650;10.720;2022-09-25T17:19:33;26.13;;;13.20;;
3006;SDS011;1513;47.650;10.720;2022-09-25T17:22:36;16.77;;;10.07;;
3006;SDS011;1513;47.650;10.720;2022-09-25T17:25:44;11.60;;;8.13;;
3006;SDS011;1513;47.650;10.720;2022-09-25T17:29:05;12.63;;;7.10;;
3006;SDS011;1513;47.650;10.720;2022-09-25T17:32:10;9.33;;;7.17;;
3006;SDS011;1513;47.650;10.720;2022-09-25T17:35:43;11.17;;;7.33;;
3006;SDS011;1513;47.650;10.720;2022-09-25T17:38:46;10.63;;;7.70;;
3006;SDS011;1513;47.650;10.720;2022-09-25T17:41:49;10.87;;;6.57;;
3006;SDS011;1513;47.650;10.720;2022-09-25T17:44:56;9.50;;;5.87;;
3006;SDS011;1513;47.650;10.720;2022-09-25T17:48:00;8.83;;;4.90;;
3006;SDS011;1513;47.650;10.720;2022-09-25T17:51:17;11.40;;;6.50;;
3006;SDS011;1513;47.650;10.720;2022-09-25T17:54:22;26.70;;;11.70;;
3006;SDS011;1513;47.650;10.720;2022-09-25T17:57:26;29.67;;;11.70;;
3006;SDS011;1513;47.650;10.720;2022-09-25T18:00:30;22.47;;;10.73;;
3006;SDS011;1513;47.650;10.720;2022-09-25T18:03:35;12.63;;;7.53;;
3006;SDS011;1513;47.650;10.720;2022-09-25T18:06:38;12.00;;;7.20;;
3006;SDS011;1513;47.650;10.720;2022-09-25T18:09:44;7.70;;;4.83;;
3006;SDS011;1513;47.650;10.720;2022-09-25T18:12:48;5.20;;;4.30;;
3006;SDS011;1513;47.650;10.720;2022-09-25T18:15:55;8.90;;;5.77;;
3006;SDS011;1513;47.650;10.720;2022-09-25T18:19:00;13.53;;;9.63;;
3006;SDS011;1513;47.650;10.720;2022-09-25T18:22:22;11.07;;;7.97;;
3006;SDS011;1513;47.650;10.720;2022-09-25T18:25:27;7.50;;;5.60;;
3006;SDS011;1513;47.650;10.720;2022-09-25T18:28:30;7.60;;;6.30;;
3006;SDS011;1513;47.650;10.720;2022-09-25T18:31:34;6.37;;;4.27;;
3006;SDS011;1513;47.650;10.720;2022-09-25T18:34:38;2.90;;;2.70;;
3006;SDS011;1513;47.650;10.720;2022-09-25T18:37:42;3.17;;;2.90;;
3006;SDS011;1513;47.650;10.720;2022-09-25T18:40:45;3.83;;;3.10;;
3006;SDS011;1513;47.650;10.720;2022-09-25T18:43:49;3.20;;;2.27;;
3006;SDS011;1513;47.650;10.720;2022-09-25T18:46:52;4.20;;;3.40;;
3006;SDS011;1513;47.650;10.720;2022-09-25T18:49:57;6.60;;;4.43;;
3006;SDS011;1513;47.650;10.720;2022-09-25T18:53:00;4.60;;;2.93;;
3006;SDS011;1513;47.650;10.720;2022-09-25T18:56:04;3.63;;;2.80;;
3006;SDS011;1513;47.650;10.720;2022-09-25T18:59:08;2.77;;;2.57;;
3006;SDS011;1513;47.650;10.720;2022-09-25T19:02:16;15.00;;;8.17;;
3006;SDS011;1513;47.650;10.720;2022-09-25T19:05:30;4.73;;;3.50;;
3006;SDS011;1513;47.650;10.720;2022-09-25T19:08:35;2.37;;;2.17;;
3006;SDS011;1513;47.650;10.720;2022-09-25T19:11:39;3.13;;;2.93;;
3006;SDS011;1513;47.650;10.720;2022-09-25T19:14:42;4.20;;;3.30;;
3006;SDS011;1513;47.650;10.720;2022-09-25T19:17:46;5.10;;;4.60;;
3006;SDS011;1513;47.650;10.720;2022-09-25T19:20:51;4.30;;;3.90;;
3006;SDS011;1513;47.650;10.720;2022-09-25T19:23:56;2.40;;;2.20;;
3006;SDS011;1513;47.650;10.720;2022-09-25T19:26:59;9.80;;;6.37;;
3006;SDS011;1513;47.650;10.720;2022-09-25T19:30:03;9.73;;;5.27;;
3006;SDS011;1513;47.650;10.720;2022-09-25T19:33:07;9.73;;;6.50;;
3006;SDS011;1513;47.650;10.720;2022-09-25T19:36:12;4.30;;;3.77;;
3006;SDS011;1513;47.650;10.720;2022-09-25T19:39:20;5.60;;;3.20;;
3006;SDS011;1513;47.650;10.720;2022-09-25T19:42:28;4.70;;;4.20;;
3006;SDS011;1513;47.650;10.720;2022-09-25T19:45:35;3.57;;;3.10;;
3006;SDS011;1513;47.650;10.720;2022-09-25T19:48:38;3.67;;;3.30;;
3006;SDS011;1513;47.650;10.720;2022-09-25T19:51:42;25.80;;;11.17;;
3006;SDS011;1513;47.650;10.720;2022-09-25T19:54:46;5.50;;;4.30;;
3006;SDS011;1513;47.650;10.720;2022-09-25T19:57:49;5.70;;;5.10;;
3006;SDS011;1513;47.650;10.720;2022-09-25T20:00:54;6.57;;;5.70;;
3006;SDS011;1513;47.650;10.720;2022-09-25T20:03:59;4.20;;;3.80;;
3006;SDS011;1513;47.650;10.720;2022-09-25T20:07:04;2.60;;;2.40;;
3006;SDS011;1513;47.650;10.720;2022-09-25T20:10:07;3.60;;;3.07;;
3006;SDS011;1513;47.650;10.720;2022-09-25T20:13:10;3.73;;;2.30;;
3006;SDS011;1513;47.650;10.720;2022-09-25T20:16:16;3.77;;;2.83;;
3006;SDS011;1513;47.650;10.720;2022-09-25T20:19:22;3.50;;;3.07;;
3006;SDS011;1513;47.650;10.720;2022-09-25T20:22:25;2.60;;;2.40;;
3006;SDS011;1513;47.650;10.720;2022-09-25T20:25:28;3.53;;;3.10;;
3006;SDS011;1513;47.650;10.720;2022-09-25T20:28:33;4.50;;;3.20;;
3006;SDS011;1513;47.650;10.720;2022-09-25T20:31:38;4.57;;;2.97;;
3006;SDS011;1513;47.650;10.720;2022-09-25T20:34:44;3.77;;;2.80;;
3006;SDS011;1513;47.650;10.720;2022-09-25T20:37:47;4.73;;;3.70;;
3006;SDS011;1513;47.650;10.720;2022-09-25T20:40:51;4.43;;;4.03;;
3006;SDS011;1513;47.650;10.720;2022-09-25T20:43:55;3.03;;;2.73;;
3006;SDS011;1513;47.650;10.720;2022-09-25T20:46:59;16.17;;;6.90;;
3006;SDS011;1513;47.650;10.720;2022-09-25T20:50:02;3.10;;;2.73;;
3006;SDS011;1513;47.650;10.720;2022-09-25T20:53:07;2.80;;;2.30;;
3006;SDS011;1513;47.650;10.720;2022-09-25T20:56:11;1.47;;;1.03;;
3006;SDS011;1513;47.650;10.720;2022-09-25T20:59:16;0.97;;;0.97;;
3006;SDS011;1513;47.650;10.720;2022-09-25T21:02:20;0.90;;;0.90;;
3006;SDS011;1513;47.650;10.720;2022-09-25T21:05:23;1.53;;;1.00;;
3006;SDS011;1513;47.650;10.720;2022-09-25T21:08:27;1.07;;;0.90;;
3006;SDS011;1513;47.650;10.720;2022-09-25T21:11:33;1.10;;;1.00;;
3006;SDS011;1513;47.650;10.720;2022-09-25T21:14:36;1.63;;;0.93;;
3006;SDS011;1513;47.650;10.720;2022-09-25T21:17:40;0.87;;;0.87;;
3006;SDS011;1513;47.650;10.720;2022-09-25T21:20:43;1.13;;;1.07;;
3006;SDS011;1513;47.650;10.720;2022-09-25T21:23:48;0.97;;;0.97;;
3006;SDS011;1513;47.650;10.720;2022-09-25T21:26:53;2.07;;;1.30;;
3006;SDS011;1513;47.650;10.720;2022-09-25T21:29:56;1.10;;;1.00;;
3006;SDS011;1513;47.650;10.720;2022-09-25T21:32:59;1.30;;;1.20;;
3006;SDS011;1513;47.650;10.720;2022-09-25T21:36:03;1.00;;;1.00;;
3006;SDS011;1513;47.650;10.720;2022-09-25T21:39:07;3.13;;;1.60;;